sensor_id;sensor_type;location;lat;lon;timestamp;pressure;altitude;pressure_sealevel;temperature;humidity
50282;BME280;36176;51.506;10.272;2022-12-05T00:02:02;99493.28;;;1.79;96.18
50282;BME280;36176;51.506;10.272;2022-12-05T00:04:30;99498.47;;;1.83;96.00
50282;BME280;36176;51.506;10.272;2022-12-05T00:06:57;99502.78;;;1.86;95.86
50282;BME280;36176;51.506;10.272;2022-12-05T00:09:24;99500.97;;;1.91;96.29
50282;BME280;36176;51.506;10.272;2022-12-05T00:11:51;99498.38;;;1.91;95.49
50282;BME280;36176;51.506;10.272;2022-12-05T00:14:21;99500.13;;;1.90;95.84
50282;BME280;36176;51.506;10.272;2022-12-05T00:16:48;99512.22;;;1.98;95.56
50282;BME280;36176;51.506;10.272;2022-12-05T00:19:17;99502.63;;;1.98;95.53
50282;BME280;36176;51.506;10.272;2022-12-05T00:21:44;99516.66;;;1.94;95.08
50282;BME280;36176;51.506;10.272;2022-12-05T00:24:14;99508.81;;;1.91;95.13
50282;BME280;36176;51.506;10.272;2022-12-05T00:26:42;99507.06;;;1.91;95.42
50282;BME280;36176;51.506;10.272;2022-12-05T00:29:11;99505.28;;;1.94;95.33
50282;BME280;36176;51.506;10.272;2022-12-05T00:31:39;99506.16;;;1.96;95.08
50282;BME280;36176;51.506;10.272;2022-12-05T00:34:09;99502.72;;;1.92;95.46
50282;BME280;36176;51.506;10.272;2022-12-05T00:36:36;99502.69;;;1.95;95.39
50282;BME280;36176;51.506;10.272;2022-12-05T00:39:07;99495.66;;;1.99;95.52
50282;BME280;36176;51.506;10.272;2022-12-05T00:41:48;99494.75;;;2.03;95.69
50282;BME280;36176;51.506;10.272;2022-12-05T00:44:16;99486.03;;;2.04;95.19
50282;BME280;36176;51.506;10.272;2022-12-05T00:46:43;99491.22;;;2.07;95.38
50282;BME280;36176;51.506;10.272;2022-12-05T00:49:11;99488.59;;;2.07;94.96
50282;BME280;36176;51.506;10.272;2022-12-05T00:51:40;99492.97;;;2.06;95.07
50282;BME280;36176;51.506;10.272;2022-12-05T00:54:13;99484.28;;;2.04;95.11
50282;BME280;36176;51.506;10.272;2022-12-05T00:56:44;99481.66;;;2.04;95.04
50282;BME280;36176;51.506;10.272;2022-12-05T00:59:18;99483.38;;;2.07;95.60
50282;BME280;36176;51.506;10.272;2022-12-05T01:01:47;99487.75;;;2.05;95.19
50282;BME280;36176;51.506;10.272;2022-12-05T01:04:21;99486.94;;;2.01;95.16
50282;BME280;36176;51.506;10.272;2022-12-05T01:06:50;99486.94;;;2.01;94.98
50282;BME280;36176;51.506;10.272;2022-12-05T01:09:19;99486.09;;;1.99;94.99
50282;BME280;36176;51.506;10.272;2022-12-05T01:11:48;99488.69;;;1.99;95.20
50282;BME280;36176;51.506;10.272;2022-12-05T01:14:18;99487.81;;;1.99;95.13
50282;BME280;36176;51.506;10.272;2022-12-05T01:16:48;99493.06;;;1.97;95.47
50282;BME280;36176;51.506;10.272;2022-12-05T01:19:24;99497.44;;;1.95;95.68
50282;BME280;36176;51.506;10.272;2022-12-05T01:21:52;99490.50;;;1.94;95.40
50282;BME280;36176;51.506;10.272;2022-12-05T01:24:20;99490.53;;;1.91;95.78
50282;BME280;36176;51.506;10.272;2022-12-05T01:26:48;99489.66;;;1.92;95.92
50282;BME280;36176;51.506;10.272;2022-12-05T01:29:19;99491.38;;;1.91;95.28
50282;BME280;36176;51.506;10.272;2022-12-05T01:31:47;99488.75;;;1.93;95.13
50282;BME280;36176;51.506;10.272;2022-12-05T01:34:16;99483.59;;;1.90;95.56
50282;BME280;36176;51.506;10.272;2022-12-05T01:36:44;99489.66;;;1.90;95.69
50282;BME280;36176;51.506;10.272;2022-12-05T01:39:12;99492.28;;;1.89;96.01
50282;BME280;36176;51.506;10.272;2022-12-05T01:41:48;99487.06;;;1.89;95.90
50282;BME280;36176;51.506;10.272;2022-12-05T01:46:46;99502.72;;;1.90;95.98
50282;BME280;36176;51.506;10.272;2022-12-05T01:49:32;99504.50;;;1.88;95.80
50282;BME280;36176;51.506;10.272;2022-12-05T01:52:13;99504.53;;;1.85;96.24
50282;BME280;36176;51.506;10.272;2022-12-05T01:54:43;99497.59;;;1.83;95.82
50282;BME280;36176;51.506;10.272;2022-12-05T01:57:13;99500.25;;;1.77;96.06
50282;BME280;36176;51.506;10.272;2022-12-05T01:59:49;99498.59;;;1.73;96.47
50282;BME280;36176;51.506;10.272;2022-12-05T02:02:18;99496.84;;;1.73;96.14
50282;BME280;36176;51.506;10.272;2022-12-05T02:05:16;99490.75;;;1.73;96.27
50282;BME280;36176;51.506;10.272;2022-12-05T02:07:46;99492.53;;;1.67;96.79
50282;BME280;36176;51.506;10.272;2022-12-05T02:10:13;99491.66;;;1.67;96.86
50282;BME280;36176;51.506;10.272;2022-12-05T02:12:42;99493.38;;;1.71;97.15
50282;BME280;36176;51.506;10.272;2022-12-05T02:18:19;99501.13;;;1.79;96.80
50282;BME280;36176;51.506;10.272;2022-12-05T02:37:28;99495.19;;;1.66;96.63
50282;BME280;36176;51.506;10.272;2022-12-05T02:40:23;99501.31;;;1.62;96.56
50282;BME280;36176;51.506;10.272;2022-12-05T02:43:02;99501.34;;;1.57;96.86
50282;BME280;36176;51.506;10.272;2022-12-05T02:45:38;99499.69;;;1.50;96.66
50282;BME280;36176;51.506;10.272;2022-12-05T02:48:21;99497.97;;;1.46;96.82
50282;BME280;36176;51.506;10.272;2022-12-05T02:50:51;99498.03;;;1.41;96.91
50282;BME280;36176;51.506;10.272;2022-12-05T02:53:20;99486.75;;;1.38;96.75
50282;BME280;36176;51.506;10.272;2022-12-05T02:55:58;99484.19;;;1.33;96.55
50282;BME280;36176;51.506;10.272;2022-12-05T02:58:33;99489.41;;;1.32;96.96
50282;BME280;36176;51.506;10.272;2022-12-05T03:01:02;99486.78;;;1.33;96.91
50282;BME280;36176;51.506;10.272;2022-12-05T03:03:31;99485.94;;;1.31;96.73
50282;BME280;36176;51.506;10.272;2022-12-05T03:06:14;99492.94;;;1.27;96.78
50282;BME280;36176;51.506;10.272;2022-12-05T03:08:54;99492.97;;;1.23;96.69
50282;BME280;36176;51.506;10.272;2022-12-05T03:11:45;99486.06;;;1.20;96.92
50282;BME280;36176;51.506;10.272;2022-12-05T03:14:18;99490.41;;;1.20;96.50
50282;BME280;36176;51.506;10.272;2022-12-05T03:16:56;99489.56;;;1.18;96.62
50282;BME280;36176;51.506;10.272;2022-12-05T03:23:09;99481.81;;;1.09;96.34
50282;BME280;36176;51.506;10.272;2022-12-05T03:26:05;99491.41;;;1.03;96.47
50282;BME280;36176;51.506;10.272;2022-12-05T03:34:41;99486.19;;;1.03;96.98
50282;BME280;36176;51.506;10.272;2022-12-05T03:38:16;99488.81;;;1.00;97.07
50282;BME280;36176;51.506;10.272;2022-12-05T03:41:52;99496.63;;;1.00;96.94
50282;BME280;36176;51.506;10.272;2022-12-05T03:50:33;99494.94;;;0.96;97.21
50282;BME280;36176;51.506;10.272;2022-12-05T03:56:33;99492.38;;;0.90;97.42
50282;BME280;36176;51.506;10.272;2022-12-05T03:59:29;99493.22;;;0.94;97.41
50282;BME280;36176;51.506;10.272;2022-12-05T04:02:08;99498.41;;;0.95;97.34
50282;BME280;36176;51.506;10.272;2022-12-05T04:10:57;99494.06;;;0.96;97.08
50282;BME280;36176;51.506;10.272;2022-12-05T04:14:41;99499.31;;;0.94;97.05
50282;BME280;36176;51.506;10.272;2022-12-05T04:17:16;99494.97;;;0.89;97.12
50282;BME280;36176;51.506;10.272;2022-12-05T04:20:39;99501.91;;;0.93;97.04
50282;BME280;36176;51.506;10.272;2022-12-05T04:23:26;99505.34;;;0.98;97.38
50282;BME280;36176;51.506;10.272;2022-12-05T04:26:10;99501.00;;;1.01;96.82
50282;BME280;36176;51.506;10.272;2022-12-05T04:28:50;99504.47;;;1.03;97.28
50282;BME280;36176;51.506;10.272;2022-12-05T04:31:41;99501.00;;;1.01;96.66
50282;BME280;36176;51.506;10.272;2022-12-05T04:34:13;99498.41;;;0.98;96.83
50282;BME280;36176;51.506;10.272;2022-12-05T04:36:52;99506.25;;;0.98;96.95
50282;BME280;36176;51.506;10.272;2022-12-05T04:39:28;99509.69;;;1.00;96.44
50282;BME280;36176;51.506;10.272;2022-12-05T04:42:08;99508.81;;;1.00;96.47
50282;BME280;36176;51.506;10.272;2022-12-05T04:44:42;99512.28;;;1.02;97.05
50282;BME280;36176;51.506;10.272;2022-12-05T04:47:12;99515.75;;;1.04;97.05
50282;BME280;36176;51.506;10.272;2022-12-05T04:49:42;99514.91;;;1.03;96.64
50282;BME280;36176;51.506;10.272;2022-12-05T04:52:18;99513.19;;;0.99;96.24
50282;BME280;36176;51.506;10.272;2022-12-05T04:55:16;99514.06;;;0.95;96.70
50282;BME280;36176;51.506;10.272;2022-12-05T04:58:02;99514.94;;;0.97;96.99
50282;BME280;36176;51.506;10.272;2022-12-05T05:03:30;99514.03;;;1.00;96.56
50282;BME280;36176;51.506;10.272;2022-12-05T05:06:09;99503.59;;;1.00;96.44
50282;BME280;36176;51.506;10.272;2022-12-05T05:08:50;99508.81;;;1.00;96.76
50282;BME280;36176;51.506;10.272;2022-12-05T05:11:29;99517.50;;;1.02;96.53
50282;BME280;36176;51.506;10.272;2022-12-05T05:14:31;99515.78;;;1.01;96.66
50282;BME280;36176;51.506;10.272;2022-12-05T05:17:23;99514.03;;;1.01;96.41
50282;BME280;36176;51.506;10.272;2022-12-05T05:19:55;99514.94;;;0.99;96.64
50282;BME280;36176;51.506;10.272;2022-12-05T05:22:47;99517.53;;;0.99;96.72
50282;BME280;36176;51.506;10.272;2022-12-05T05:25:15;99517.50;;;1.02;96.38
50282;BME280;36176;51.506;10.272;2022-12-05T05:27:51;99512.25;;;1.06;95.82
50282;BME280;36176;51.506;10.272;2022-12-05T05:30:23;99517.50;;;1.02;96.52
50282;BME280;36176;51.506;10.272;2022-12-05T05:32:53;99518.41;;;1.01;96.33
50282;BME280;36176;51.506;10.272;2022-12-05T05:35:24;99510.56;;;0.98;96.71
50282;BME280;36176;51.506;10.272;2022-12-05T05:37:57;99509.72;;;0.99;96.19
50282;BME280;36176;51.506;10.272;2022-12-05T05:40:25;99518.38;;;1.02;96.78
50282;BME280;36176;51.506;10.272;2022-12-05T05:42:55;99514.91;;;1.02;96.21
50282;BME280;36176;51.506;10.272;2022-12-05T05:45:48;99519.25;;;1.01;96.16
50282;BME280;36176;51.506;10.272;2022-12-05T05:51:58;99523.63;;;0.98;96.40
50282;BME280;36176;51.506;10.272;2022-12-05T05:58:34;99520.16;;;0.99;96.66
50282;BME280;36176;51.506;10.272;2022-12-05T06:05:22;99525.34;;;1.00;96.43
50282;BME280;36176;51.506;10.272;2022-12-05T06:07:57;99520.13;;;1.00;95.96
50282;BME280;36176;51.506;10.272;2022-12-05T06:11:19;99518.41;;;0.98;96.62
50282;BME280;36176;51.506;10.272;2022-12-05T06:14:24;99521.97;;;0.89;96.71
50282;BME280;36176;51.506;10.272;2022-12-05T06:17:06;99523.72;;;0.87;96.56
50282;BME280;36176;51.506;10.272;2022-12-05T06:19:45;99523.69;;;0.89;96.67
50282;BME280;36176;51.506;10.272;2022-12-05T06:22:12;99529.75;;;0.91;96.95
50282;BME280;36176;51.506;10.272;2022-12-05T06:24:42;99528.00;;;0.94;96.58
50282;BME280;36176;51.506;10.272;2022-12-05T06:32:38;99535.81;;;0.99;96.93
50282;BME280;36176;51.506;10.272;2022-12-05T06:35:18;99535.78;;;1.02;96.69
50282;BME280;36176;51.506;10.272;2022-12-05T07:11:50;99560.19;;;0.95;96.80
50282;BME280;36176;51.506;10.272;2022-12-05T07:15:08;99563.69;;;0.88;96.91
50282;BME280;36176;51.506;10.272;2022-12-05T07:17:44;99564.53;;;0.93;96.94
50282;BME280;36176;51.506;10.272;2022-12-05T07:24:50;99572.38;;;0.94;96.91
50282;BME280;36176;51.506;10.272;2022-12-05T07:28:15;99573.25;;;0.92;96.82
50282;BME280;36176;51.506;10.272;2022-12-05T07:35:19;99576.69;;;0.95;97.35
50282;BME280;36176;51.506;10.272;2022-12-05T08:14:49;99593.06;;;1.19;97.00
50282;BME280;36176;51.506;10.272;2022-12-05T09:01:13;99640.63;;;1.61;95.51
50282;BME280;36176;51.506;10.272;2022-12-05T09:03:55;99645.78;;;1.67;95.66
50282;BME280;36176;51.506;10.272;2022-12-05T09:06:25;99645.78;;;1.67;94.97
50282;BME280;36176;51.506;10.272;2022-12-05T09:09:12;99652.72;;;1.69;94.92
50282;BME280;36176;51.506;10.272;2022-12-05T09:11:45;99656.22;;;1.68;94.79
50282;BME280;36176;51.506;10.272;2022-12-05T09:14:16;99654.53;;;1.61;94.45
50282;BME280;36176;51.506;10.272;2022-12-05T09:21:30;99659.75;;;1.63;95.44
50282;BME280;36176;51.506;10.272;2022-12-05T09:24:10;99666.69;;;1.65;95.02
50282;BME280;36176;51.506;10.272;2022-12-05T09:26:50;99672.78;;;1.66;95.23
50282;BME280;36176;51.506;10.272;2022-12-05T09:29:39;99663.16;;;1.69;95.20
50282;BME280;36176;51.506;10.272;2022-12-05T09:32:56;99664.88;;;1.74;94.73
50282;BME280;36176;51.506;10.272;2022-12-05T09:35:43;99664.03;;;1.73;95.17
50282;BME280;36176;51.506;10.272;2022-12-05T09:39:10;99662.28;;;1.75;94.79
50282;BME280;36176;51.506;10.272;2022-12-05T09:45:03;99651.81;;;1.75;94.70
50282;BME280;36176;51.506;10.272;2022-12-05T10:00:19;99655.09;;;1.96;94.44
50282;BME280;36176;51.506;10.272;2022-12-05T10:10:39;99641.22;;;1.92;94.17
50282;BME280;36176;51.506;10.272;2022-12-05T10:16:47;99632.44;;;1.98;94.04
50282;BME280;36176;51.506;10.272;2022-12-05T10:19:48;99631.41;;;2.12;93.94
50282;BME280;36176;51.506;10.272;2022-12-05T10:22:42;99636.50;;;2.26;93.53
50282;BME280;36176;51.506;10.272;2022-12-05T10:31:46;99641.78;;;2.22;92.21
50282;BME280;36176;51.506;10.272;2022-12-05T10:34:53;99640.91;;;2.21;93.13
50282;BME280;36176;51.506;10.272;2022-12-05T10:38:03;99636.50;;;2.25;92.91
50282;BME280;36176;51.506;10.272;2022-12-05T10:44:15;99637.25;;;2.36;93.93
50282;BME280;36176;51.506;10.272;2022-12-05T10:47:20;99636.47;;;2.31;92.92
50282;BME280;36176;51.506;10.272;2022-12-05T10:49:51;99633.84;;;2.29;92.25
50282;BME280;36176;51.506;10.272;2022-12-05T10:52:34;99626.81;;;2.38;93.07
50282;BME280;36176;51.506;10.272;2022-12-05T10:55:43;99622.38;;;2.44;92.83
50282;BME280;36176;51.506;10.272;2022-12-05T10:58:37;99626.66;;;2.48;92.80
50282;BME280;36176;51.506;10.272;2022-12-05T11:01:09;99623.19;;;2.48;92.53
50282;BME280;36176;51.506;10.272;2022-12-05T11:04:17;99630.13;;;2.49;92.07
50282;BME280;36176;51.506;10.272;2022-12-05T11:07:00;99634.50;;;2.48;92.71
50282;BME280;36176;51.506;10.272;2022-12-05T11:09:46;99632.88;;;2.38;92.40
50282;BME280;36176;51.506;10.272;2022-12-05T11:15:24;99633.97;;;2.19;92.43
50282;BME280;36176;51.506;10.272;2022-12-05T11:18:35;99641.91;;;2.08;92.40
50282;BME280;36176;51.506;10.272;2022-12-05T11:21:13;99636.72;;;2.03;93.14
50282;BME280;36176;51.506;10.272;2022-12-05T11:30:55;99635.06;;;1.96;93.07
50282;BME280;36176;51.506;10.272;2022-12-05T11:33:31;99640.31;;;1.93;93.38
50282;BME280;36176;51.506;10.272;2022-12-05T11:36:16;99639.50;;;1.89;93.25
50282;BME280;36176;51.506;10.272;2022-12-05T11:38:45;99642.06;;;1.92;93.33
50282;BME280;36176;51.506;10.272;2022-12-05T11:59:20;99636.84;;;1.94;94.29
50282;BME280;36176;51.506;10.272;2022-12-05T12:17:20;99638.59;;;1.92;94.20
50282;BME280;36176;51.506;10.272;2022-12-05T12:23:40;99632.56;;;1.84;94.19
50282;BME280;36176;51.506;10.272;2022-12-05T12:32:40;99633.38;;;1.89;94.73
50282;BME280;36176;51.506;10.272;2022-12-05T12:38:13;99639.41;;;1.97;94.92
50282;BME280;36176;51.506;10.272;2022-12-05T12:40:58;99636.78;;;2.00;94.48
50282;BME280;36176;51.506;10.272;2022-12-05T12:46:56;99629.75;;;2.08;94.11
50282;BME280;36176;51.506;10.272;2022-12-05T12:49:59;99626.19;;;2.16;93.94
50282;BME280;36176;51.506;10.272;2022-12-05T12:53:22;99627.03;;;2.16;93.85
50282;BME280;36176;51.506;10.272;2022-12-05T12:56:16;99629.69;;;2.11;93.91
50282;BME280;36176;51.506;10.272;2022-12-05T12:59:13;99634.97;;;2.08;94.13
50282;BME280;36176;51.506;10.272;2022-12-05T13:02:19;99638.44;;;2.07;94.43
50282;BME280;36176;51.506;10.272;2022-12-05T13:05:05;99637.63;;;2.04;94.46
50282;BME280;36176;51.506;10.272;2022-12-05T13:07:41;99644.69;;;1.91;94.04
50282;BME280;36176;51.506;10.272;2022-12-05T13:10:20;99634.28;;;1.89;94.59
50282;BME280;36176;51.506;10.272;2022-12-05T13:12:51;99633.34;;;1.94;94.38
50282;BME280;36176;51.506;10.272;2022-12-05T13:15:30;99632.44;;;1.96;95.00
50282;BME280;36176;51.506;10.272;2022-12-05T13:18:01;99630.69;;;2.01;94.48
50282;BME280;36176;51.506;10.272;2022-12-05T13:20:33;99628.88;;;2.05;94.74
50282;BME280;36176;51.506;10.272;2022-12-05T13:23:04;99632.31;;;2.11;94.80
50282;BME280;36176;51.506;10.272;2022-12-05T13:25:35;99627.00;;;2.18;95.08
50282;BME280;36176;51.506;10.272;2022-12-05T13:28:20;99629.59;;;2.19;94.10
50282;BME280;36176;51.506;10.272;2022-12-05T13:30:54;99627.84;;;2.20;94.68
50282;BME280;36176;51.506;10.272;2022-12-05T13:33:26;99633.94;;;2.20;94.03
50282;BME280;36176;51.506;10.272;2022-12-05T13:36:02;99638.31;;;2.23;94.46
50282;BME280;36176;51.506;10.272;2022-12-05T13:38:55;99631.28;;;2.25;94.28
50282;BME280;36176;51.506;10.272;2022-12-05T13:41:55;99633.88;;;2.28;94.39
50282;BME280;36176;51.506;10.272;2022-12-05T13:45:07;99640.81;;;2.30;94.02
50282;BME280;36176;51.506;10.272;2022-12-05T13:47:50;99639.97;;;2.28;94.64
50282;BME280;36176;51.506;10.272;2022-12-05T13:53:05;99631.22;;;2.31;94.20
50282;BME280;36176;51.506;10.272;2022-12-05T13:55:36;99636.50;;;2.28;93.85
50282;BME280;36176;51.506;10.272;2022-12-05T14:00:50;99633.94;;;2.22;94.49
50282;BME280;36176;51.506;10.272;2022-12-05T14:06:05;99640.91;;;2.21;94.17
50282;BME280;36176;51.506;10.272;2022-12-05T14:11:09;99634.88;;;2.16;94.21
50282;BME280;36176;51.506;10.272;2022-12-05T14:13:38;99640.16;;;2.11;94.21
50282;BME280;36176;51.506;10.272;2022-12-05T14:19:03;99636.72;;;2.06;95.13
50282;BME280;36176;51.506;10.272;2022-12-05T14:25:01;99635.00;;;2.04;94.80
50282;BME280;36176;51.506;10.272;2022-12-05T14:27:50;99633.25;;;2.04;95.36
50282;BME280;36176;51.506;10.272;2022-12-05T14:30:31;99641.94;;;2.06;95.20
50282;BME280;36176;51.506;10.272;2022-12-05T14:33:01;99641.94;;;2.06;95.22
50282;BME280;36176;51.506;10.272;2022-12-05T14:38:02;99644.56;;;2.06;94.97
50282;BME280;36176;51.506;10.272;2022-12-05T14:40:36;99648.03;;;2.07;94.94
50282;BME280;36176;51.506;10.272;2022-12-05T14:43:32;99644.59;;;2.02;95.21
50282;BME280;36176;51.506;10.272;2022-12-05T14:46:24;99648.09;;;2.01;95.64
50282;BME280;36176;51.506;10.272;2022-12-05T14:48:52;99654.19;;;1.98;95.10
50282;BME280;36176;51.506;10.272;2022-12-05T14:54:11;99655.97;;;1.96;95.53
50282;BME280;36176;51.506;10.272;2022-12-05T14:56:50;99654.19;;;1.98;96.00
50282;BME280;36176;51.506;10.272;2022-12-05T14:59:31;99657.69;;;2.00;95.26
50282;BME280;36176;51.506;10.272;2022-12-05T15:02:02;99657.69;;;1.99;95.23
50282;BME280;36176;51.506;10.272;2022-12-05T15:04:46;99655.97;;;1.96;95.51
50282;BME280;36176;51.506;10.272;2022-12-05T15:07:18;99654.25;;;1.94;95.52
50282;BME280;36176;51.506;10.272;2022-12-05T15:10:35;99649.91;;;1.92;95.35
50282;BME280;36176;51.506;10.272;2022-12-05T15:13:12;99652.56;;;1.89;95.66
50282;BME280;36176;51.506;10.272;2022-12-05T15:16:11;99657.75;;;1.91;96.08
50282;BME280;36176;51.506;10.272;2022-12-05T15:18:44;99656.00;;;1.91;95.51
50282;BME280;36176;51.506;10.272;2022-12-05T15:21:47;99656.91;;;1.90;96.28
50282;BME280;36176;51.506;10.272;2022-12-05T15:24:19;99656.00;;;1.91;96.11
50282;BME280;36176;51.506;10.272;2022-12-05T15:26:51;99661.22;;;1.91;96.17
50282;BME280;36176;51.506;10.272;2022-12-05T15:34:41;99659.56;;;1.84;96.04
50282;BME280;36176;51.506;10.272;2022-12-05T15:37:20;99661.31;;;1.87;95.91
50282;BME280;36176;51.506;10.272;2022-12-05T15:39:55;99665.63;;;1.89;95.86
50282;BME280;36176;51.506;10.272;2022-12-05T15:42:25;99662.97;;;1.91;95.62
50282;BME280;36176;51.506;10.272;2022-12-05T15:45:23;99664.72;;;1.92;96.08
50282;BME280;36176;51.506;10.272;2022-12-05T15:48:16;99663.84;;;1.93;95.95
50282;BME280;36176;51.506;10.272;2022-12-05T15:50:52;99667.31;;;1.94;95.72
50282;BME280;36176;51.506;10.272;2022-12-05T15:53:39;99674.25;;;1.96;95.51
50282;BME280;36176;51.506;10.272;2022-12-05T15:56:23;99673.44;;;1.92;95.76
50282;BME280;36176;51.506;10.272;2022-12-05T15:59:04;99663.84;;;1.91;95.67
50282;BME280;36176;51.506;10.272;2022-12-05T16:01:44;99664.72;;;1.92;95.66
50282;BME280;36176;51.506;10.272;2022-12-05T16:04:35;99667.34;;;1.92;95.58
50282;BME280;36176;51.506;10.272;2022-12-05T16:07:10;99669.06;;;1.91;95.52
50282;BME280;36176;51.506;10.272;2022-12-05T16:09:44;99669.09;;;1.88;95.46
50282;BME280;36176;51.506;10.272;2022-12-05T16:12:23;99670.84;;;1.86;95.53
50282;BME280;36176;51.506;10.272;2022-12-05T16:15:17;99670.91;;;1.85;95.54
50282;BME280;36176;51.506;10.272;2022-12-05T16:17:54;99669.19;;;1.81;96.09
50282;BME280;36176;51.506;10.272;2022-12-05T16:22:53;99672.66;;;1.81;95.93
50282;BME280;36176;51.506;10.272;2022-12-05T16:25:35;99671.78;;;1.81;95.50
50282;BME280;36176;51.506;10.272;2022-12-05T16:32:33;99680.50;;;1.83;95.69
50282;BME280;36176;51.506;10.272;2022-12-05T16:38:33;99673.50;;;1.82;95.43
50282;BME280;36176;51.506;10.272;2022-12-05T16:41:06;99683.13;;;1.80;96.09
50282;BME280;36176;51.506;10.272;2022-12-05T16:43:55;99677.00;;;1.79;95.56
50282;BME280;36176;51.506;10.272;2022-12-05T16:46:58;99681.38;;;1.79;96.04
50282;BME280;36176;51.506;10.272;2022-12-05T16:50:34;99678.81;;;1.74;96.28
50282;BME280;36176;51.506;10.272;2022-12-05T16:56:47;99675.34;;;1.74;95.80
50282;BME280;36176;51.506;10.272;2022-12-05T16:59:46;99670.94;;;1.77;95.97
50282;BME280;36176;51.506;10.272;2022-12-05T17:02:51;99677.06;;;1.78;95.85
50282;BME280;36176;51.506;10.272;2022-12-05T17:05:39;99678.81;;;1.76;95.35
50282;BME280;36176;51.506;10.272;2022-12-05T17:08:07;99682.28;;;1.75;95.91
50282;BME280;36176;51.506;10.272;2022-12-05T17:11:21;99684.91;;;1.72;96.19
50282;BME280;36176;51.506;10.272;2022-12-05T17:14:15;99683.16;;;1.72;95.97
50282;BME280;36176;51.506;10.272;2022-12-05T17:16:44;99678.84;;;1.69;96.59
50282;BME280;36176;51.506;10.272;2022-12-05T17:19:25;99682.34;;;1.67;96.12
50282;BME280;36176;51.506;10.272;2022-12-05T17:22:12;99687.56;;;1.67;96.38
50282;BME280;36176;51.506;10.272;2022-12-05T17:25:33;99686.72;;;1.66;96.42
50282;BME280;36176;51.506;10.272;2022-12-05T17:28:24;99688.50;;;1.63;96.48
50282;BME280;36176;51.506;10.272;2022-12-05T17:31:21;99688.50;;;1.60;97.05
50282;BME280;36176;51.506;10.272;2022-12-05T17:33:50;99689.41;;;1.54;96.91
50282;BME280;36176;51.506;10.272;2022-12-05T17:36:18;99695.50;;;1.53;97.19
50282;BME280;36176;51.506;10.272;2022-12-05T17:38:48;99694.59;;;1.57;96.99
50282;BME280;36176;51.506;10.272;2022-12-05T17:41:18;99692.84;;;1.59;97.03
50282;BME280;36176;51.506;10.272;2022-12-05T17:43:54;99692.81;;;1.62;97.01
50282;BME280;36176;51.506;10.272;2022-12-05T17:46:22;99698.00;;;1.68;96.33
50282;BME280;36176;51.506;10.272;2022-12-05T17:49:08;99691.00;;;1.72;96.60
50282;BME280;36176;51.506;10.272;2022-12-05T17:51:39;99692.78;;;1.68;96.53
50282;BME280;36176;51.506;10.272;2022-12-05T17:54:30;99684.09;;;1.65;95.99
50282;BME280;36176;51.506;10.272;2022-12-05T17:56:57;99691.06;;;1.64;96.85
50282;BME280;36176;51.506;10.272;2022-12-05T18:00:04;99694.56;;;1.62;96.43
50282;BME280;36176;51.506;10.272;2022-12-05T18:02:32;99693.72;;;1.61;96.87
50282;BME280;36176;51.506;10.272;2022-12-05T18:05:01;99696.28;;;1.64;96.97
50282;BME280;36176;51.506;10.272;2022-12-05T18:07:43;99691.94;;;1.66;96.93
50282;BME280;36176;51.506;10.272;2022-12-05T18:10:18;99694.50;;;1.69;96.92
50282;BME280;36176;51.506;10.272;2022-12-05T18:12:50;99700.59;;;1.72;96.93
50282;BME280;36176;51.506;10.272;2022-12-05T18:15:20;99698.84;;;1.74;96.74
50282;BME280;36176;51.506;10.272;2022-12-05T18:17:48;99703.19;;;1.75;96.76
50282;BME280;36176;51.506;10.272;2022-12-05T18:20:42;99698.81;;;1.77;96.68
50282;BME280;36176;51.506;10.272;2022-12-05T18:23:34;99707.56;;;1.71;96.53
50282;BME280;36176;51.506;10.272;2022-12-05T18:26:04;99710.25;;;1.63;97.40
50282;BME280;36176;51.506;10.272;2022-12-05T18:28:35;99712.84;;;1.63;96.73
50282;BME280;36176;51.506;10.272;2022-12-05T18:31:11;99709.41;;;1.57;97.10
50282;BME280;36176;51.506;10.272;2022-12-05T18:33:44;99705.09;;;1.54;96.86
50282;BME280;36176;51.506;10.272;2022-12-05T18:36:15;99702.50;;;1.51;96.84
50282;BME280;36176;51.506;10.272;2022-12-05T18:38:52;99699.88;;;1.54;97.15
50282;BME280;36176;51.506;10.272;2022-12-05T18:41:23;99692.88;;;1.56;97.07
50282;BME280;36176;51.506;10.272;2022-12-05T18:44:07;99703.31;;;1.58;96.89
50282;BME280;36176;51.506;10.272;2022-12-05T18:46:36;99703.31;;;1.61;97.56
50282;BME280;36176;51.506;10.272;2022-12-05T18:49:04;99699.78;;;1.66;97.27
50282;BME280;36176;51.506;10.272;2022-12-05T18:51:32;99700.63;;;1.70;96.87
50282;BME280;36176;51.506;10.272;2022-12-05T18:53:59;99697.13;;;1.73;96.69
50282;BME280;36176;51.506;10.272;2022-12-05T18:56:29;99704.06;;;1.74;97.02
50282;BME280;36176;51.506;10.272;2022-12-05T18:59:05;99698.81;;;1.78;96.38
50282;BME280;36176;51.506;10.272;2022-12-05T19:01:35;99711.88;;;1.80;96.95
50282;BME280;36176;51.506;10.272;2022-12-05T19:04:05;99711.00;;;1.78;96.24
50282;BME280;36176;51.506;10.272;2022-12-05T19:06:35;99704.06;;;1.72;96.81
50282;BME280;36176;51.506;10.272;2022-12-05T19:09:05;99706.72;;;1.67;96.89
50282;BME280;36176;51.506;10.272;2022-12-05T19:11:34;99703.28;;;1.65;97.17
50282;BME280;36176;51.506;10.272;2022-12-05T19:14:03;99712.84;;;1.63;96.71
50282;BME280;36176;51.506;10.272;2022-12-05T19:16:32;99709.34;;;1.64;96.96
50282;BME280;36176;51.506;10.272;2022-12-05T19:19:06;99709.31;;;1.67;97.28
50282;BME280;36176;51.506;10.272;2022-12-05T19:21:40;99710.22;;;1.66;97.00
50282;BME280;36176;51.506;10.272;2022-12-05T19:24:32;99713.72;;;1.62;97.31
50282;BME280;36176;51.506;10.272;2022-12-05T19:27:14;99711.13;;;1.61;97.43
50282;BME280;36176;51.506;10.272;2022-12-05T19:29:41;99709.34;;;1.64;96.74
50282;BME280;36176;51.506;10.272;2022-12-05T19:32:50;99717.19;;;1.66;97.06
50282;BME280;36176;51.506;10.272;2022-12-05T19:35:49;99714.59;;;1.66;96.83
50282;BME280;36176;51.506;10.272;2022-12-05T19:38:24;99718.94;;;1.65;97.32
50282;BME280;36176;51.506;10.272;2022-12-05T19:41:21;99714.63;;;1.63;97.25
50282;BME280;36176;51.506;10.272;2022-12-05T19:43:50;99715.53;;;1.56;96.87